Relevés horaires Beauvechain (Belgique)


Relevés horaires à Beauvechain - Lundi 01 Juin 2020
Heure UTC1 Température [°C] Vent [km/h] Hum. [%] Pres.4 [hPa] Visi. [Km] Nébu. [octa] Préc.5 [mm] Cond.
2m. Res. Ros. Dir.2 Vit. Moy. Raf.3
23:00 17.0 17.0 4.9 NNO 1.9 -- 5.6 45 1019.7(0.5/3h) 20 -- -- --
22:00 18.2 18.2 4.6 ENE 3.7 -- 5.6 41 1019.7(0.8/3h) 20 -- -- --
21:00 18.3 18.3 6.1 NE 3.7 -- 11.1 45 1019.5(0.5/3h) 20 -- -- --
20:00 19.6 19.6 7.0 NE 3.7 -- 7.4 44 1019.1(-0.1/3h) 20 -- -- --
19:00 20.9 20.9 8.4 NE 5.6 -- 11.1 45 1018.7(-0.4/3h) 20 -- -- --
18:00 23.3 23.3 7.2 NE 7.4 -- 16.7 36 1018.7(-0.5/3h) 20 -- -- --
17:00 24.5 24.5 8.2 NE 7.4 -- 13.0 35 1018.7(-0.8/3h) 20 -- -- --
16:00 24.7 24.7 7.9 ENE 5.6 -- 13.0 34 1019(-1.0/3h) 20 -- -- --
15:00 24.7 24.7 8.1 NE 7.4 -- 16.7 35 1019.2(-1.1/3h) 20 -- -- --
14:00 24.8 24.8 8.5 NE 7.4 -- 14.8 35 1019.7(-1.1/3h) 20 -- -- --
13:00 23.9 23.9 7.9 ENE 7.4 -- 16.7 36 1020.1(-1.0/3h) 20 -- -- --
12:00 23.4 23.4 8.6 ENE 9.3 -- 18.5 39 1020.3(-0.8/3h) 20 -- -- --
11:00 22.7 22.7 8.8 ENE 7.4 -- 16.7 41 1020.8(-0.7/3h) 18 -- -- --
10:00 22.5 22.5 9.1 ENE 9.3 -- 18.5 42 1021.2(-0.5/3h) 20 -- -- --
09:00 20.5 20.5 7.8 ENE 9.3 -- 14.8 44 1021.3(0.0/3h) 20 -- -- --
08:00 18.3 18.3 7.6 ENE 7.4 -- 11.1 50 1021.8(0.4/3h) 20 -- -- --
07:00 16.7 16.7 7.4 ENE 5.6 -- 11.1 54 1022(0.4/3h) 20 -- -- --
06:00 14.7 14.7 6.7 ENE 5.6 -- 9.3 59 1021.7(0.2/3h) 20 -- -- --
05:00 12.6 12.6 6.6 NNO 3.7 -- 5.6 67 1021.7(0.0/3h) 20 -- -- --
04:00 11.8 11.8 6.0 NNO 1.9 -- 3.7 68 1021.7(0.0/3h) 20 -- -- --
03:00 11.7 11.7 5.8 NNO 1.9 -- 5.6 67 1021.7(0.0/3h) 20 -- -- --
02:00 11.7 11.7 5.7 NNO 1.9 -- 5.6 67 1021.7(0.1/3h) 20 -- -- --
01:00 12.9 12.9 5.7 NNO 3.7 -- 5.6 62 1021.7(0.0/3h) 20 -- -- --
00:00 13.9 13.9 5.5 E 3.7 -- 14.8 57 1021.7(0.1/3h) 20 -- -- --

1 Coordinated Universal Time. Actuellement il est 20:00 locale et 18:00 UTC.

2 Le vent souffle depuis la direction indiquée vers la direction oposée.

3 Les rafales max. sont disponible 40 min après l'heure du relevé.

4 Pour les stations d'altitude (plus de 600m) le géopotentiel du niveau le plus proche de la pression obligatoire est indiqué.

5 Les stations disposant d'un diffuseur peuvent indiquer "trace". Cela signifie que des précipitations ont touchés le sol mais que la quantité est inférieure à 0.1 mm.

Récapitulatif de la journée
Température [°C] Vent [km/h] Ensoleillement4 [h] Precipitations totale5 [mm] Pression [Hpa]
Min1 Max.2 Moy.3 Max. Min Max.
10.9 25.7 0 18.5 0 h 0 min 0 1018.7 1022.0

1 Température minimale relevée entre 18:00 UTC la veille et 18:00 UTC le jour donné.

2 Température maximale relevée entre 06:00 UTC le jour donné et 06:00 UTC le lendemain.

3 Vent moyen de la journée basé sur les relevés horaires.

4 Ensoleillement en heures relevé entre 06:00 UTC la veille et 06:00 UTC le jour donné.

5 Précipitations totales tombées entre 06:00 UTC la jour donné et 06:00 UTC le lendemain.

Graphiques horaires